Terminal Aerodrome Forecast
Issued by NWS

Home | Current Version | Previous Version | Text Only | Print | Product List | Glossary On
Versions: 1 2 3 4 5 6 7 8 9 10 11 12 13 14 15 16 17
000
FTAK31 PAJN 290500
TAFAPG
TAF
PAPG 290530Z 2906/3006 00000KT P6SM -RA SCT008 SCT020 OVC040
     FM290900 00000KT 6SM -RA BR SCT005 BKN020 OVC040
      TEMPO 2910/2914 4SM -RA BR BKN005 OVC020
     FM291500 VRB03KT 5SM -RA BR SCT005 BKN025 OVC050
     FM291800 VRB04KT 4SM -RA BR OVC025
     FM292100 06005KT P6SM -RA SCT025 OVC050
     FM300300 VRB03KT P6SM -RA OVC050
      AMD LTD TO CLD VIS AND WIND 2906/2915=

USA.gov is the U.S. government's official web portal to all federal, state and local government web resources and services.